sensor_id;sensor_type;location;lat;lon;timestamp;P1;durP1;ratioP1;P2;durP2;ratioP2
18387;SDS011;9320;50.256;19.026;2023-04-03T00:01:11;8.67;;;7.63;;
18387;SDS011;9320;50.256;19.026;2023-04-03T00:03:39;8.63;;;7.37;;
18387;SDS011;9320;50.256;19.026;2023-04-03T00:06:09;8.83;;;7.93;;
18387;SDS011;9320;50.256;19.026;2023-04-03T00:08:38;8.90;;;8.00;;
18387;SDS011;9320;50.256;19.026;2023-04-03T00:11:08;9.60;;;7.50;;
18387;SDS011;9320;50.256;19.026;2023-04-03T00:13:37;8.57;;;7.27;;
18387;SDS011;9320;50.256;19.026;2023-04-03T00:16:06;9.20;;;7.67;;
18387;SDS011;9320;50.256;19.026;2023-04-03T00:18:34;8.23;;;7.07;;
18387;SDS011;9320;50.256;19.026;2023-04-03T00:21:03;8.27;;;7.47;;
18387;SDS011;9320;50.256;19.026;2023-04-03T00:23:31;8.37;;;7.33;;
18387;SDS011;9320;50.256;19.026;2023-04-03T00:26:00;8.27;;;7.47;;
18387;SDS011;9320;50.256;19.026;2023-04-03T00:28:30;7.93;;;7.13;;
18387;SDS011;9320;50.256;19.026;2023-04-03T00:30:58;10.30;;;7.67;;
18387;SDS011;9320;50.256;19.026;2023-04-03T00:33:26;8.50;;;7.60;;
18387;SDS011;9320;50.256;19.026;2023-04-03T00:35:54;9.63;;;7.63;;
18387;SDS011;9320;50.256;19.026;2023-04-03T00:38:22;8.80;;;7.90;;
18387;SDS011;9320;50.256;19.026;2023-04-03T00:40:50;8.30;;;7.50;;
18387;SDS011;9320;50.256;19.026;2023-04-03T00:43:19;9.20;;;8.27;;
18387;SDS011;9320;50.256;19.026;2023-04-03T00:45:50;8.80;;;7.90;;
18387;SDS011;9320;50.256;19.026;2023-04-03T00:48:20;9.30;;;8.40;;
18387;SDS011;9320;50.256;19.026;2023-04-03T00:50:52;9.47;;;7.90;;
18387;SDS011;9320;50.256;19.026;2023-04-03T00:53:21;11.03;;;8.87;;
18387;SDS011;9320;50.256;19.026;2023-04-03T00:55:53;10.17;;;8.70;;
18387;SDS011;9320;50.256;19.026;2023-04-03T00:58:24;10.97;;;9.23;;
18387;SDS011;9320;50.256;19.026;2023-04-03T01:00:57;10.40;;;8.93;;
18387;SDS011;9320;50.256;19.026;2023-04-03T01:03:26;13.33;;;10.07;;
18387;SDS011;9320;50.256;19.026;2023-04-03T01:05:54;14.77;;;10.87;;
18387;SDS011;9320;50.256;19.026;2023-04-03T01:08:22;12.47;;;10.77;;
18387;SDS011;9320;50.256;19.026;2023-04-03T01:10:50;13.00;;;10.80;;
18387;SDS011;9320;50.256;19.026;2023-04-03T01:13:21;13.37;;;11.00;;
18387;SDS011;9320;50.256;19.026;2023-04-03T01:15:51;14.13;;;11.10;;
18387;SDS011;9320;50.256;19.026;2023-04-03T01:18:21;13.73;;;11.17;;
18387;SDS011;9320;50.256;19.026;2023-04-03T01:24:20;14.37;;;11.33;;
18387;SDS011;9320;50.256;19.026;2023-04-03T01:26:54;13.23;;;11.67;;
18387;SDS011;9320;50.256;19.026;2023-04-03T01:29:23;14.77;;;11.93;;
18387;SDS011;9320;50.256;19.026;2023-04-03T01:31:52;15.67;;;11.63;;
18387;SDS011;9320;50.256;19.026;2023-04-03T01:34:22;17.10;;;11.83;;
18387;SDS011;9320;50.256;19.026;2023-04-03T01:36:51;16.57;;;12.27;;
18387;SDS011;9320;50.256;19.026;2023-04-03T01:39:19;17.03;;;12.40;;
18387;SDS011;9320;50.256;19.026;2023-04-03T01:41:48;15.57;;;11.97;;
18387;SDS011;9320;50.256;19.026;2023-04-03T01:44:16;13.83;;;11.97;;
18387;SDS011;9320;50.256;19.026;2023-04-03T01:46:44;16.83;;;13.00;;
18387;SDS011;9320;50.256;19.026;2023-04-03T01:49:13;15.67;;;13.43;;
18387;SDS011;9320;50.256;19.026;2023-04-03T01:51:41;14.13;;;12.00;;
18387;SDS011;9320;50.256;19.026;2023-04-03T01:54:10;17.07;;;11.80;;
18387;SDS011;9320;50.256;19.026;2023-04-03T01:56:38;12.67;;;11.10;;
18387;SDS011;9320;50.256;19.026;2023-04-03T01:59:06;14.17;;;10.43;;
18387;SDS011;9320;50.256;19.026;2023-04-03T02:01:34;13.23;;;10.93;;
18387;SDS011;9320;50.256;19.026;2023-04-03T02:04:02;12.47;;;10.57;;
18387;SDS011;9320;50.256;19.026;2023-04-03T02:06:32;12.40;;;9.83;;
18387;SDS011;9320;50.256;19.026;2023-04-03T02:09:01;11.03;;;9.80;;
18387;SDS011;9320;50.256;19.026;2023-04-03T02:11:29;12.40;;;9.93;;
18387;SDS011;9320;50.256;19.026;2023-04-03T02:13:57;11.67;;;9.20;;
18387;SDS011;9320;50.256;19.026;2023-04-03T02:16:25;12.77;;;9.77;;
18387;SDS011;9320;50.256;19.026;2023-04-03T02:18:53;13.47;;;9.70;;
18387;SDS011;9320;50.256;19.026;2023-04-03T02:21:21;11.83;;;9.53;;
18387;SDS011;9320;50.256;19.026;2023-04-03T02:23:50;10.30;;;8.90;;
18387;SDS011;9320;50.256;19.026;2023-04-03T02:26:18;11.80;;;9.10;;
18387;SDS011;9320;50.256;19.026;2023-04-03T02:28:47;13.97;;;9.47;;
18387;SDS011;9320;50.256;19.026;2023-04-03T02:31:15;10.40;;;9.27;;
18387;SDS011;9320;50.256;19.026;2023-04-03T02:33:43;11.13;;;8.77;;
18387;SDS011;9320;50.256;19.026;2023-04-03T02:36:11;10.47;;;9.37;;
18387;SDS011;9320;50.256;19.026;2023-04-03T02:38:39;10.47;;;9.17;;
18387;SDS011;9320;50.256;19.026;2023-04-03T02:41:09;12.97;;;9.60;;
18387;SDS011;9320;50.256;19.026;2023-04-03T02:43:38;14.07;;;9.77;;
18387;SDS011;9320;50.256;19.026;2023-04-03T02:46:07;12.10;;;8.87;;
18387;SDS011;9320;50.256;19.026;2023-04-03T02:48:36;12.17;;;10.10;;
18387;SDS011;9320;50.256;19.026;2023-04-03T02:51:04;12.77;;;10.23;;
18387;SDS011;9320;50.256;19.026;2023-04-03T02:53:32;11.17;;;9.53;;
18387;SDS011;9320;50.256;19.026;2023-04-03T02:56:00;13.47;;;10.43;;
18387;SDS011;9320;50.256;19.026;2023-04-03T02:58:30;14.83;;;12.03;;
18387;SDS011;9320;50.256;19.026;2023-04-03T03:00:57;14.40;;;10.10;;
18387;SDS011;9320;50.256;19.026;2023-04-03T03:03:27;16.20;;;10.10;;
18387;SDS011;9320;50.256;19.026;2023-04-03T03:06:00;17.13;;;10.47;;
18387;SDS011;9320;50.256;19.026;2023-04-03T03:08:30;15.80;;;11.00;;
18387;SDS011;9320;50.256;19.026;2023-04-03T03:10:58;15.00;;;10.53;;
18387;SDS011;9320;50.256;19.026;2023-04-03T03:13:26;15.40;;;10.30;;
18387;SDS011;9320;50.256;19.026;2023-04-03T03:15:55;14.33;;;10.47;;
18387;SDS011;9320;50.256;19.026;2023-04-03T03:18:24;18.00;;;10.60;;
18387;SDS011;9320;50.256;19.026;2023-04-03T03:20:52;13.07;;;9.53;;
18387;SDS011;9320;50.256;19.026;2023-04-03T03:23:21;11.67;;;9.23;;
18387;SDS011;9320;50.256;19.026;2023-04-03T03:25:53;13.87;;;9.33;;
18387;SDS011;9320;50.256;19.026;2023-04-03T03:28:22;13.47;;;9.40;;
18387;SDS011;9320;50.256;19.026;2023-04-03T03:30:51;10.30;;;8.50;;
18387;SDS011;9320;50.256;19.026;2023-04-03T03:33:20;14.03;;;8.53;;
18387;SDS011;9320;50.256;19.026;2023-04-03T03:35:48;11.13;;;8.80;;
18387;SDS011;9320;50.256;19.026;2023-04-03T03:38:17;12.50;;;8.60;;
18387;SDS011;9320;50.256;19.026;2023-04-03T03:40:46;13.67;;;8.60;;
18387;SDS011;9320;50.256;19.026;2023-04-03T03:43:15;12.90;;;8.63;;
18387;SDS011;9320;50.256;19.026;2023-04-03T03:45:43;12.10;;;8.23;;
18387;SDS011;9320;50.256;19.026;2023-04-03T03:48:12;11.30;;;8.87;;
18387;SDS011;9320;50.256;19.026;2023-04-03T03:50:41;14.50;;;8.53;;
18387;SDS011;9320;50.256;19.026;2023-04-03T03:53:09;14.40;;;8.70;;
18387;SDS011;9320;50.256;19.026;2023-04-03T03:55:37;11.87;;;7.93;;
18387;SDS011;9320;50.256;19.026;2023-04-03T03:58:05;10.83;;;8.23;;
18387;SDS011;9320;50.256;19.026;2023-04-03T04:00:33;9.73;;;7.90;;
18387;SDS011;9320;50.256;19.026;2023-04-03T04:03:01;10.23;;;7.83;;
18387;SDS011;9320;50.256;19.026;2023-04-03T04:05:29;10.53;;;8.60;;
18387;SDS011;9320;50.256;19.026;2023-04-03T04:07:59;8.90;;;7.60;;
18387;SDS011;9320;50.256;19.026;2023-04-03T04:10:27;10.70;;;8.00;;
18387;SDS011;9320;50.256;19.026;2023-04-03T04:12:55;12.57;;;7.97;;
18387;SDS011;9320;50.256;19.026;2023-04-03T04:15:24;9.93;;;7.73;;
18387;SDS011;9320;50.256;19.026;2023-04-03T04:17:53;11.10;;;8.30;;
18387;SDS011;9320;50.256;19.026;2023-04-03T04:20:21;11.93;;;8.23;;
18387;SDS011;9320;50.256;19.026;2023-04-03T04:22:49;9.67;;;7.80;;
18387;SDS011;9320;50.256;19.026;2023-04-03T04:25:19;12.60;;;8.37;;
18387;SDS011;9320;50.256;19.026;2023-04-03T04:27:47;11.63;;;8.70;;
18387;SDS011;9320;50.256;19.026;2023-04-03T04:30:15;12.63;;;8.83;;
18387;SDS011;9320;50.256;19.026;2023-04-03T04:32:43;11.47;;;8.77;;
18387;SDS011;9320;50.256;19.026;2023-04-03T04:35:12;12.10;;;8.63;;
18387;SDS011;9320;50.256;19.026;2023-04-03T04:37:42;11.30;;;9.23;;
18387;SDS011;9320;50.256;19.026;2023-04-03T04:40:11;12.63;;;9.50;;
18387;SDS011;9320;50.256;19.026;2023-04-03T04:42:40;15.97;;;10.37;;
18387;SDS011;9320;50.256;19.026;2023-04-03T04:45:08;11.37;;;8.97;;
18387;SDS011;9320;50.256;19.026;2023-04-03T04:47:37;12.77;;;8.77;;
18387;SDS011;9320;50.256;19.026;2023-04-03T04:50:05;13.40;;;9.33;;
18387;SDS011;9320;50.256;19.026;2023-04-03T04:52:34;13.13;;;9.57;;
18387;SDS011;9320;50.256;19.026;2023-04-03T04:55:02;16.27;;;10.20;;
18387;SDS011;9320;50.256;19.026;2023-04-03T04:57:30;12.23;;;9.37;;
18387;SDS011;9320;50.256;19.026;2023-04-03T05:00:00;15.70;;;10.47;;
18387;SDS011;9320;50.256;19.026;2023-04-03T05:02:29;12.57;;;8.80;;
18387;SDS011;9320;50.256;19.026;2023-04-03T05:04:57;13.50;;;9.97;;
18387;SDS011;9320;50.256;19.026;2023-04-03T05:07:27;14.83;;;9.20;;
18387;SDS011;9320;50.256;19.026;2023-04-03T05:09:55;11.70;;;8.57;;
18387;SDS011;9320;50.256;19.026;2023-04-03T05:12:23;12.83;;;8.83;;
18387;SDS011;9320;50.256;19.026;2023-04-03T05:14:51;10.47;;;8.40;;
18387;SDS011;9320;50.256;19.026;2023-04-03T05:17:20;13.23;;;9.37;;
18387;SDS011;9320;50.256;19.026;2023-04-03T05:19:48;15.03;;;9.87;;
18387;SDS011;9320;50.256;19.026;2023-04-03T05:22:16;12.23;;;8.77;;
18387;SDS011;9320;50.256;19.026;2023-04-03T05:24:44;16.57;;;9.13;;
18387;SDS011;9320;50.256;19.026;2023-04-03T05:27:12;16.33;;;9.17;;
18387;SDS011;9320;50.256;19.026;2023-04-03T05:29:41;10.07;;;9.07;;
18387;SDS011;9320;50.256;19.026;2023-04-03T05:32:10;11.47;;;8.87;;
18387;SDS011;9320;50.256;19.026;2023-04-03T05:34:40;12.33;;;9.30;;
18387;SDS011;9320;50.256;19.026;2023-04-03T05:37:08;13.07;;;8.97;;
18387;SDS011;9320;50.256;19.026;2023-04-03T05:39:36;11.70;;;8.63;;
18387;SDS011;9320;50.256;19.026;2023-04-03T05:42:07;10.00;;;8.77;;
18387;SDS011;9320;50.256;19.026;2023-04-03T05:44:35;15.50;;;9.77;;
18387;SDS011;9320;50.256;19.026;2023-04-03T05:47:03;14.53;;;9.10;;
18387;SDS011;9320;50.256;19.026;2023-04-03T05:49:32;12.30;;;8.93;;
18387;SDS011;9320;50.256;19.026;2023-04-03T05:52:01;11.50;;;9.23;;
18387;SDS011;9320;50.256;19.026;2023-04-03T05:54:30;14.60;;;9.30;;
18387;SDS011;9320;50.256;19.026;2023-04-03T05:56:58;13.73;;;9.60;;
18387;SDS011;9320;50.256;19.026;2023-04-03T05:59:26;13.73;;;9.43;;
18387;SDS011;9320;50.256;19.026;2023-04-03T06:01:54;10.53;;;9.00;;
18387;SDS011;9320;50.256;19.026;2023-04-03T06:04:23;14.13;;;9.13;;
18387;SDS011;9320;50.256;19.026;2023-04-03T06:06:52;13.77;;;9.53;;
18387;SDS011;9320;50.256;19.026;2023-04-03T06:09:24;13.20;;;9.67;;
18387;SDS011;9320;50.256;19.026;2023-04-03T06:11:55;15.07;;;9.03;;
18387;SDS011;9320;50.256;19.026;2023-04-03T06:14:24;13.57;;;9.67;;
18387;SDS011;9320;50.256;19.026;2023-04-03T06:16:53;17.53;;;9.90;;
18387;SDS011;9320;50.256;19.026;2023-04-03T06:19:22;14.50;;;10.23;;
18387;SDS011;9320;50.256;19.026;2023-04-03T06:21:51;14.97;;;10.03;;
18387;SDS011;9320;50.256;19.026;2023-04-03T06:24:19;12.83;;;8.53;;
18387;SDS011;9320;50.256;19.026;2023-04-03T06:26:51;14.63;;;9.33;;
18387;SDS011;9320;50.256;19.026;2023-04-03T06:29:20;12.40;;;9.17;;
18387;SDS011;9320;50.256;19.026;2023-04-03T06:31:48;11.60;;;9.50;;
18387;SDS011;9320;50.256;19.026;2023-04-03T06:34:17;12.07;;;9.33;;
18387;SDS011;9320;50.256;19.026;2023-04-03T06:36:45;12.17;;;9.53;;
18387;SDS011;9320;50.256;19.026;2023-04-03T06:39:13;12.00;;;9.20;;
18387;SDS011;9320;50.256;19.026;2023-04-03T06:41:43;15.07;;;9.37;;
18387;SDS011;9320;50.256;19.026;2023-04-03T06:44:13;12.13;;;8.70;;
18387;SDS011;9320;50.256;19.026;2023-04-03T06:46:42;15.13;;;9.23;;
18387;SDS011;9320;50.256;19.026;2023-04-03T06:49:12;13.73;;;10.13;;
18387;SDS011;9320;50.256;19.026;2023-04-03T06:51:41;16.03;;;9.33;;
18387;SDS011;9320;50.256;19.026;2023-04-03T06:54:09;14.23;;;9.20;;
18387;SDS011;9320;50.256;19.026;2023-04-03T06:56:37;17.13;;;10.23;;
18387;SDS011;9320;50.256;19.026;2023-04-03T06:59:06;14.50;;;8.93;;
18387;SDS011;9320;50.256;19.026;2023-04-03T07:01:36;10.97;;;9.37;;
18387;SDS011;9320;50.256;19.026;2023-04-03T07:04:04;16.70;;;10.23;;
18387;SDS011;9320;50.256;19.026;2023-04-03T07:06:34;12.10;;;9.40;;
18387;SDS011;9320;50.256;19.026;2023-04-03T07:09:02;13.13;;;9.43;;
18387;SDS011;9320;50.256;19.026;2023-04-03T07:11:31;13.77;;;9.47;;
18387;SDS011;9320;50.256;19.026;2023-04-03T07:14:00;16.65;;;9.85;;
18387;SDS011;9320;50.256;19.026;2023-04-03T07:16:28;12.27;;;8.90;;
18387;SDS011;9320;50.256;19.026;2023-04-03T07:18:58;15.43;;;9.37;;
18387;SDS011;9320;50.256;19.026;2023-04-03T07:21:27;15.60;;;8.53;;
18387;SDS011;9320;50.256;19.026;2023-04-03T07:23:56;15.90;;;9.13;;
18387;SDS011;9320;50.256;19.026;2023-04-03T07:26:24;12.43;;;9.13;;
18387;SDS011;9320;50.256;19.026;2023-04-03T07:28:52;12.83;;;8.20;;
18387;SDS011;9320;50.256;19.026;2023-04-03T07:31:20;12.97;;;8.83;;
18387;SDS011;9320;50.256;19.026;2023-04-03T07:33:49;12.27;;;8.03;;
18387;SDS011;9320;50.256;19.026;2023-04-03T07:36:19;11.37;;;8.67;;
18387;SDS011;9320;50.256;19.026;2023-04-03T07:38:49;12.23;;;8.77;;
18387;SDS011;9320;50.256;19.026;2023-04-03T07:41:17;11.17;;;9.03;;
18387;SDS011;9320;50.256;19.026;2023-04-03T07:43:48;11.77;;;8.30;;
18387;SDS011;9320;50.256;19.026;2023-04-03T07:46:18;12.03;;;8.50;;
18387;SDS011;9320;50.256;19.026;2023-04-03T07:48:47;13.27;;;8.10;;
18387;SDS011;9320;50.256;19.026;2023-04-03T07:51:15;13.37;;;7.97;;
18387;SDS011;9320;50.256;19.026;2023-04-03T07:53:44;10.70;;;8.10;;
18387;SDS011;9320;50.256;19.026;2023-04-03T07:56:13;12.03;;;7.70;;
18387;SDS011;9320;50.256;19.026;2023-04-03T07:58:41;10.07;;;7.73;;
18387;SDS011;9320;50.256;19.026;2023-04-03T08:01:09;13.67;;;8.97;;
18387;SDS011;9320;50.256;19.026;2023-04-03T08:03:37;14.03;;;8.40;;
18387;SDS011;9320;50.256;19.026;2023-04-03T08:06:07;12.17;;;8.40;;
18387;SDS011;9320;50.256;19.026;2023-04-03T08:08:41;12.03;;;9.00;;
18387;SDS011;9320;50.256;19.026;2023-04-03T08:11:11;11.70;;;8.10;;
18387;SDS011;9320;50.256;19.026;2023-04-03T08:13:39;13.27;;;8.30;;
18387;SDS011;9320;50.256;19.026;2023-04-03T08:16:09;11.33;;;8.53;;
18387;SDS011;9320;50.256;19.026;2023-04-03T08:18:39;9.93;;;7.20;;
18387;SDS011;9320;50.256;19.026;2023-04-03T08:21:07;10.80;;;6.87;;
18387;SDS011;9320;50.256;19.026;2023-04-03T08:23:36;8.40;;;6.97;;
18387;SDS011;9320;50.256;19.026;2023-04-03T08:26:06;8.57;;;7.40;;
18387;SDS011;9320;50.256;19.026;2023-04-03T08:28:36;12.83;;;7.40;;
18387;SDS011;9320;50.256;19.026;2023-04-03T08:31:05;12.27;;;7.53;;
18387;SDS011;9320;50.256;19.026;2023-04-03T08:33:37;9.33;;;7.20;;
18387;SDS011;9320;50.256;19.026;2023-04-03T08:36:07;12.40;;;6.77;;
18387;SDS011;9320;50.256;19.026;2023-04-03T08:38:43;19.50;;;8.63;;
18387;SDS011;9320;50.256;19.026;2023-04-03T08:41:13;11.93;;;7.70;;
18387;SDS011;9320;50.256;19.026;2023-04-03T08:43:50;14.53;;;7.70;;
18387;SDS011;9320;50.256;19.026;2023-04-03T08:46:26;9.50;;;7.00;;
18387;SDS011;9320;50.256;19.026;2023-04-03T08:49:06;8.37;;;6.63;;
18387;SDS011;9320;50.256;19.026;2023-04-03T08:51:41;9.57;;;6.97;;
18387;SDS011;9320;50.256;19.026;2023-04-03T08:54:19;10.53;;;6.63;;
18387;SDS011;9320;50.256;19.026;2023-04-03T08:56:55;11.77;;;6.97;;
18387;SDS011;9320;50.256;19.026;2023-04-03T08:59:28;15.77;;;8.70;;
18387;SDS011;9320;50.256;19.026;2023-04-03T09:02:00;8.43;;;6.63;;
18387;SDS011;9320;50.256;19.026;2023-04-03T09:04:33;8.13;;;6.20;;
18387;SDS011;9320;50.256;19.026;2023-04-03T09:07:02;8.90;;;6.67;;
18387;SDS011;9320;50.256;19.026;2023-04-03T09:09:35;8.13;;;6.20;;
18387;SDS011;9320;50.256;19.026;2023-04-03T09:12:11;8.63;;;6.43;;
18387;SDS011;9320;50.256;19.026;2023-04-03T09:14:48;8.00;;;6.77;;
18387;SDS011;9320;50.256;19.026;2023-04-03T09:17:26;8.73;;;6.80;;
18387;SDS011;9320;50.256;19.026;2023-04-03T09:20:07;12.83;;;6.03;;
18387;SDS011;9320;50.256;19.026;2023-04-03T09:22:46;7.80;;;6.30;;
18387;SDS011;9320;50.256;19.026;2023-04-03T09:25:19;9.27;;;6.83;;
18387;SDS011;9320;50.256;19.026;2023-04-03T09:27:50;9.43;;;6.50;;
18387;SDS011;9320;50.256;19.026;2023-04-03T09:30:22;8.83;;;5.73;;
18387;SDS011;9320;50.256;19.026;2023-04-03T09:32:52;9.17;;;6.17;;
18387;SDS011;9320;50.256;19.026;2023-04-03T09:35:23;8.80;;;6.47;;
18387;SDS011;9320;50.256;19.026;2023-04-03T09:38:17;9.17;;;6.90;;
18387;SDS011;9320;50.256;19.026;2023-04-03T09:40:48;12.00;;;5.90;;
18387;SDS011;9320;50.256;19.026;2023-04-03T09:43:21;9.67;;;6.67;;
18387;SDS011;9320;50.256;19.026;2023-04-03T09:48:50;10.30;;;6.40;;
18387;SDS011;9320;50.256;19.026;2023-04-03T09:51:34;10.13;;;6.63;;
18387;SDS011;9320;50.256;19.026;2023-04-03T09:54:17;9.07;;;6.77;;
18387;SDS011;9320;50.256;19.026;2023-04-03T09:56:53;12.07;;;7.50;;
18387;SDS011;9320;50.256;19.026;2023-04-03T09:59:23;9.87;;;6.10;;
18387;SDS011;9320;50.256;19.026;2023-04-03T10:02:00;7.40;;;5.67;;
18387;SDS011;9320;50.256;19.026;2023-04-03T10:04:37;10.13;;;6.53;;
18387;SDS011;9320;50.256;19.026;2023-04-03T10:09:57;7.73;;;6.00;;
18387;SDS011;9320;50.256;19.026;2023-04-03T10:12:27;5.73;;;5.00;;
18387;SDS011;9320;50.256;19.026;2023-04-03T10:14:56;7.13;;;5.30;;
18387;SDS011;9320;50.256;19.026;2023-04-03T10:17:30;14.43;;;5.87;;
18387;SDS011;9320;50.256;19.026;2023-04-03T10:20:17;11.40;;;5.07;;
18387;SDS011;9320;50.256;19.026;2023-04-03T10:22:56;6.43;;;5.37;;
18387;SDS011;9320;50.256;19.026;2023-04-03T10:25:32;5.67;;;5.10;;
18387;SDS011;9320;50.256;19.026;2023-04-03T10:28:09;7.90;;;5.57;;
18387;SDS011;9320;50.256;19.026;2023-04-03T10:30:42;10.33;;;5.53;;
18387;SDS011;9320;50.256;19.026;2023-04-03T10:33:22;9.57;;;5.90;;
18387;SDS011;9320;50.256;19.026;2023-04-03T10:36:10;7.43;;;5.77;;
18387;SDS011;9320;50.256;19.026;2023-04-03T10:38:48;14.47;;;5.57;;
18387;SDS011;9320;50.256;19.026;2023-04-03T10:41:23;8.50;;;6.20;;
18387;SDS011;9320;50.256;19.026;2023-04-03T10:44:04;7.77;;;5.60;;
18387;SDS011;9320;50.256;19.026;2023-04-03T10:46:42;8.50;;;5.63;;
18387;SDS011;9320;50.256;19.026;2023-04-03T10:49:19;7.90;;;6.17;;
18387;SDS011;9320;50.256;19.026;2023-04-03T10:51:58;8.43;;;5.97;;
18387;SDS011;9320;50.256;19.026;2023-04-03T10:54:32;10.83;;;5.77;;
18387;SDS011;9320;50.256;19.026;2023-04-03T10:57:06;8.33;;;6.03;;
18387;SDS011;9320;50.256;19.026;2023-04-03T10:59:40;7.53;;;5.97;;
18387;SDS011;9320;50.256;19.026;2023-04-03T11:02:14;8.20;;;5.67;;
18387;SDS011;9320;50.256;19.026;2023-04-03T11:04:48;9.40;;;6.30;;
18387;SDS011;9320;50.256;19.026;2023-04-03T11:07:21;9.50;;;6.40;;
18387;SDS011;9320;50.256;19.026;2023-04-03T11:09:52;7.63;;;5.60;;
18387;SDS011;9320;50.256;19.026;2023-04-03T11:12:24;8.87;;;5.80;;
18387;SDS011;9320;50.256;19.026;2023-04-03T11:14:58;9.87;;;6.47;;
18387;SDS011;9320;50.256;19.026;2023-04-03T11:17:30;7.63;;;5.90;;
18387;SDS011;9320;50.256;19.026;2023-04-03T11:20:05;10.87;;;5.83;;
18387;SDS011;9320;50.256;19.026;2023-04-03T11:22:43;7.93;;;5.17;;
18387;SDS011;9320;50.256;19.026;2023-04-03T11:25:15;5.57;;;4.93;;
18387;SDS011;9320;50.256;19.026;2023-04-03T11:27:49;13.03;;;6.27;;
18387;SDS011;9320;50.256;19.026;2023-04-03T11:30:23;9.87;;;5.80;;
18387;SDS011;9320;50.256;19.026;2023-04-03T11:35:51;8.33;;;5.13;;
18387;SDS011;9320;50.256;19.026;2023-04-03T11:38:23;7.73;;;5.67;;
18387;SDS011;9320;50.256;19.026;2023-04-03T11:40:55;9.17;;;5.60;;
18387;SDS011;9320;50.256;19.026;2023-04-03T11:43:26;10.17;;;5.90;;
18387;SDS011;9320;50.256;19.026;2023-04-03T11:45:57;10.23;;;6.40;;
18387;SDS011;9320;50.256;19.026;2023-04-03T11:48:48;8.73;;;5.60;;
18387;SDS011;9320;50.256;19.026;2023-04-03T12:09:34;7.03;;;5.80;;
18387;SDS011;9320;50.256;19.026;2023-04-03T12:12:24;6.37;;;5.77;;
18387;SDS011;9320;50.256;19.026;2023-04-03T12:21:11;14.53;;;6.30;;
18387;SDS011;9320;50.256;19.026;2023-04-03T12:23:57;6.60;;;5.63;;
18387;SDS011;9320;50.256;19.026;2023-04-03T12:26:34;6.43;;;5.47;;
18387;SDS011;9320;50.256;19.026;2023-04-03T12:29:17;7.57;;;6.20;;
18387;SDS011;9320;50.256;19.026;2023-04-03T12:31:55;9.10;;;5.63;;
18387;SDS011;9320;50.256;19.026;2023-04-03T12:34:38;11.37;;;6.20;;
18387;SDS011;9320;50.256;19.026;2023-04-03T12:37:20;8.33;;;5.93;;
18387;SDS011;9320;50.256;19.026;2023-04-03T12:40:03;11.30;;;6.07;;
18387;SDS011;9320;50.256;19.026;2023-04-03T12:42:48;10.77;;;5.97;;
18387;SDS011;9320;50.256;19.026;2023-04-03T12:45:44;11.27;;;6.37;;
18387;SDS011;9320;50.256;19.026;2023-04-03T12:48:17;11.60;;;6.00;;
18387;SDS011;9320;50.256;19.026;2023-04-03T12:50:49;7.50;;;5.90;;
18387;SDS011;9320;50.256;19.026;2023-04-03T12:53:18;10.83;;;5.53;;
18387;SDS011;9320;50.256;19.026;2023-04-03T12:55:53;9.93;;;5.30;;
18387;SDS011;9320;50.256;19.026;2023-04-03T12:58:23;12.43;;;5.10;;
18387;SDS011;9320;50.256;19.026;2023-04-03T13:01:02;7.03;;;5.47;;
18387;SDS011;9320;50.256;19.026;2023-04-03T13:03:30;10.80;;;5.60;;
18387;SDS011;9320;50.256;19.026;2023-04-03T13:05:59;8.37;;;6.07;;
18387;SDS011;9320;50.256;19.026;2023-04-03T13:08:29;7.47;;;5.60;;
18387;SDS011;9320;50.256;19.026;2023-04-03T13:10:58;8.70;;;6.47;;
18387;SDS011;9320;50.256;19.026;2023-04-03T13:13:29;6.67;;;5.90;;
18387;SDS011;9320;50.256;19.026;2023-04-03T13:15:58;8.13;;;6.00;;
18387;SDS011;9320;50.256;19.026;2023-04-03T13:18:36;8.40;;;5.90;;
18387;SDS011;9320;50.256;19.026;2023-04-03T13:21:05;6.63;;;5.50;;
18387;SDS011;9320;50.256;19.026;2023-04-03T13:23:35;5.80;;;5.03;;
18387;SDS011;9320;50.256;19.026;2023-04-03T13:26:05;6.93;;;5.37;;
18387;SDS011;9320;50.256;19.026;2023-04-03T13:28:35;9.03;;;5.63;;
18387;SDS011;9320;50.256;19.026;2023-04-03T13:31:07;5.87;;;5.03;;
18387;SDS011;9320;50.256;19.026;2023-04-03T13:33:53;7.10;;;5.47;;
18387;SDS011;9320;50.256;19.026;2023-04-03T13:36:25;9.93;;;5.60;;
18387;SDS011;9320;50.256;19.026;2023-04-03T13:39:04;6.60;;;5.40;;
18387;SDS011;9320;50.256;19.026;2023-04-03T13:41:34;8.83;;;6.13;;
18387;SDS011;9320;50.256;19.026;2023-04-03T13:44:18;8.73;;;5.80;;
18387;SDS011;9320;50.256;19.026;2023-04-03T13:46:58;9.03;;;6.40;;
18387;SDS011;9320;50.256;19.026;2023-04-03T13:49:29;12.77;;;6.33;;
18387;SDS011;9320;50.256;19.026;2023-04-03T13:51:59;6.00;;;5.27;;
18387;SDS011;9320;50.256;19.026;2023-04-03T13:54:34;8.57;;;6.20;;
18387;SDS011;9320;50.256;19.026;2023-04-03T13:57:10;6.90;;;6.20;;
18387;SDS011;9320;50.256;19.026;2023-04-03T13:59:41;10.00;;;6.07;;
18387;SDS011;9320;50.256;19.026;2023-04-03T14:02:14;6.70;;;6.00;;
18387;SDS011;9320;50.256;19.026;2023-04-03T14:04:51;9.47;;;6.30;;
18387;SDS011;9320;50.256;19.026;2023-04-03T14:07:26;10.53;;;6.10;;
18387;SDS011;9320;50.256;19.026;2023-04-03T14:09:55;10.97;;;6.30;;
18387;SDS011;9320;50.256;19.026;2023-04-03T14:12:25;12.53;;;6.33;;
18387;SDS011;9320;50.256;19.026;2023-04-03T14:14:57;10.77;;;6.57;;
18387;SDS011;9320;50.256;19.026;2023-04-03T14:17:28;7.77;;;6.13;;
18387;SDS011;9320;50.256;19.026;2023-04-03T14:19:57;9.73;;;6.00;;
18387;SDS011;9320;50.256;19.026;2023-04-03T14:22:28;10.10;;;5.53;;
18387;SDS011;9320;50.256;19.026;2023-04-03T14:24:57;11.30;;;5.63;;
18387;SDS011;9320;50.256;19.026;2023-04-03T14:27:27;7.90;;;5.83;;
18387;SDS011;9320;50.256;19.026;2023-04-03T14:29:58;7.70;;;5.67;;
18387;SDS011;9320;50.256;19.026;2023-04-03T14:32:26;8.60;;;5.80;;
18387;SDS011;9320;50.256;19.026;2023-04-03T14:34:56;9.07;;;5.90;;
18387;SDS011;9320;50.256;19.026;2023-04-03T14:37:26;7.43;;;5.30;;
18387;SDS011;9320;50.256;19.026;2023-04-03T14:39:56;7.60;;;5.80;;
18387;SDS011;9320;50.256;19.026;2023-04-03T14:42:26;5.83;;;5.23;;
18387;SDS011;9320;50.256;19.026;2023-04-03T14:44:56;8.63;;;5.90;;
18387;SDS011;9320;50.256;19.026;2023-04-03T14:47:25;9.43;;;5.90;;
18387;SDS011;9320;50.256;19.026;2023-04-03T14:49:58;6.93;;;5.40;;
18387;SDS011;9320;50.256;19.026;2023-04-03T14:52:28;7.57;;;5.17;;
18387;SDS011;9320;50.256;19.026;2023-04-03T14:54:58;6.63;;;5.87;;
18387;SDS011;9320;50.256;19.026;2023-04-03T14:57:29;9.03;;;5.80;;
18387;SDS011;9320;50.256;19.026;2023-04-03T14:59:57;8.43;;;6.00;;
18387;SDS011;9320;50.256;19.026;2023-04-03T15:02:28;8.60;;;6.20;;
18387;SDS011;9320;50.256;19.026;2023-04-03T15:04:59;7.43;;;5.80;;
18387;SDS011;9320;50.256;19.026;2023-04-03T15:07:30;9.77;;;6.30;;
18387;SDS011;9320;50.256;19.026;2023-04-03T15:10:02;9.23;;;5.70;;
18387;SDS011;9320;50.256;19.026;2023-04-03T15:12:41;7.13;;;5.40;;
18387;SDS011;9320;50.256;19.026;2023-04-03T15:15:10;9.37;;;5.87;;
18387;SDS011;9320;50.256;19.026;2023-04-03T15:17:39;10.57;;;6.03;;
18387;SDS011;9320;50.256;19.026;2023-04-03T15:20:12;9.17;;;6.03;;
18387;SDS011;9320;50.256;19.026;2023-04-03T15:22:41;7.63;;;6.03;;
18387;SDS011;9320;50.256;19.026;2023-04-03T15:25:09;10.10;;;6.67;;
18387;SDS011;9320;50.256;19.026;2023-04-03T15:27:38;9.10;;;6.73;;
18387;SDS011;9320;50.256;19.026;2023-04-03T15:30:08;10.53;;;6.43;;
18387;SDS011;9320;50.256;19.026;2023-04-03T15:32:40;10.93;;;6.30;;
18387;SDS011;9320;50.256;19.026;2023-04-03T15:35:09;7.17;;;6.03;;
18387;SDS011;9320;50.256;19.026;2023-04-03T15:37:38;10.37;;;6.73;;